createdAt,value
2019-03-05T00:01:50.772Z,19.50
2019-03-05T00:04:19.212Z,19.50
2019-03-05T00:06:47.623Z,19.50
2019-03-05T00:09:17.690Z,19.50
2019-03-05T00:11:46.134Z,19.50
2019-03-05T00:14:14.542Z,19.50
2019-03-05T00:16:42.954Z,19.50
2019-03-05T00:19:11.410Z,19.50
2019-03-05T00:21:39.834Z,19.50
2019-03-05T00:24:44.930Z,19.50
2019-03-05T00:27:13.348Z,19.50
2019-03-05T00:29:53.643Z,19.50
2019-03-05T00:32:22.054Z,19.50
2019-03-05T00:35:08.575Z,19.50
2019-03-05T00:37:40.249Z,19.50
2019-03-05T00:40:28.487Z,19.50
2019-03-05T00:43:02.613Z,19.50
2019-03-05T00:45:49.446Z,19.50
2019-03-05T00:48:47.192Z,19.50
2019-03-05T00:51:25.392Z,19.50
2019-03-05T00:54:25.998Z,19.50
2019-03-05T00:57:00.306Z,19.50
2019-03-05T00:59:34.721Z,19.40
2019-03-05T01:02:15.514Z,19.50
2019-03-05T01:04:53.032Z,19.50
2019-03-05T01:07:21.484Z,19.50
2019-03-05T01:09:49.902Z,19.50
2019-03-05T01:12:18.324Z,19.40
2019-03-05T01:14:46.773Z,19.50
2019-03-05T01:17:15.185Z,19.50
2019-03-05T01:19:43.612Z,19.50
2019-03-05T01:22:12.049Z,19.40
2019-03-05T01:24:40.688Z,19.50
2019-03-05T01:27:09.105Z,19.50
2019-03-05T01:29:37.545Z,19.50
2019-03-05T01:32:07.605Z,19.50
2019-03-05T01:34:40.789Z,19.50
2019-03-05T01:37:09.315Z,19.50
2019-03-05T01:39:44.925Z,19.50
2019-03-05T01:42:13.340Z,19.50
2019-03-05T01:44:41.785Z,19.50
2019-03-05T01:47:10.209Z,19.50
2019-03-05T01:49:38.617Z,19.50
2019-03-05T01:52:07.077Z,19.50
2019-03-05T01:54:35.500Z,19.50
2019-03-05T01:57:03.913Z,19.50
2019-03-05T01:59:32.363Z,19.50
2019-03-05T02:02:00.775Z,19.50
2019-03-05T02:04:29.200Z,19.40
2019-03-05T02:06:57.645Z,19.50
2019-03-05T02:09:26.079Z,19.50
2019-03-05T02:11:54.475Z,19.50
2019-03-05T02:14:22.914Z,19.50
2019-03-05T02:16:51.336Z,19.50
2019-03-05T02:19:36.528Z,19.40
2019-03-05T02:22:07.684Z,19.50
2019-03-05T02:24:53.961Z,19.50
2019-03-05T02:27:49.792Z,19.50
2019-03-05T02:30:40.101Z,19.50
2019-03-05T02:33:17.918Z,19.40
2019-03-05T02:35:52.425Z,19.40
2019-03-05T02:38:29.963Z,19.40
2019-03-05T02:41:10.723Z,19.40
2019-03-05T02:44:02.932Z,19.50
2019-03-05T02:46:40.554Z,19.50
2019-03-05T02:49:23.904Z,19.50
2019-03-05T02:52:13.666Z,19.50
2019-03-05T02:54:47.951Z,19.50
2019-03-05T02:57:15.579Z,19.50
2019-03-05T02:59:44.043Z,19.50
2019-03-05T03:02:14.100Z,19.40
2019-03-05T03:04:47.100Z,19.50
2019-03-05T03:07:15.557Z,19.40
2019-03-05T03:09:52.918Z,19.50
2019-03-05T03:12:21.368Z,19.50
2019-03-05T03:14:49.807Z,19.50
2019-03-05T03:17:18.203Z,19.50
2019-03-05T03:19:46.632Z,19.50
2019-03-05T03:22:15.045Z,19.50
2019-03-05T03:24:43.512Z,19.50
2019-03-05T03:27:11.968Z,19.40
2019-03-05T03:29:40.389Z,19.50
2019-03-05T03:32:08.810Z,19.50
2019-03-05T03:34:37.258Z,19.50
2019-03-05T03:37:05.676Z,19.50
2019-03-05T03:39:34.090Z,19.50
2019-03-05T03:42:02.538Z,19.50
2019-03-05T03:44:30.948Z,19.40
2019-03-05T03:46:59.381Z,19.40
2019-03-05T03:49:27.817Z,19.50
2019-03-05T03:51:56.227Z,19.50
2019-03-05T03:54:24.672Z,19.40
2019-03-05T03:56:53.089Z,19.50
2019-03-05T03:59:21.506Z,19.40
2019-03-05T04:01:49.920Z,19.50
2019-03-05T04:04:18.362Z,19.50
2019-03-05T04:06:46.768Z,19.50
2019-03-05T04:09:15.196Z,19.50
2019-03-05T04:11:43.617Z,19.50
2019-03-05T04:14:12.028Z,19.60
2019-03-05T04:16:40.446Z,19.50
2019-03-05T04:19:10.580Z,19.50
2019-03-05T04:21:38.945Z,19.50
2019-03-05T04:24:07.378Z,19.50
2019-03-05T04:26:35.803Z,19.50
2019-03-05T04:29:04.536Z,19.50
2019-03-05T04:31:33.619Z,19.50
2019-03-05T04:34:02.096Z,19.60
2019-03-05T04:36:30.493Z,19.60
2019-03-05T04:38:58.923Z,19.60
2019-03-05T04:41:27.360Z,19.60
2019-03-05T04:43:55.779Z,19.60
2019-03-05T04:46:31.568Z,19.70
2019-03-05T04:49:07.630Z,19.60
2019-03-05T04:51:40.667Z,19.70
2019-03-05T04:54:09.067Z,19.60
2019-03-05T04:56:37.509Z,19.60
2019-03-05T04:59:05.928Z,19.70
2019-03-05T05:01:34.402Z,19.60
2019-03-05T05:04:02.851Z,19.60
2019-03-05T05:06:31.267Z,19.60
2019-03-05T05:08:59.683Z,19.60
2019-03-05T05:11:28.123Z,19.60
2019-03-05T05:13:56.544Z,19.60
2019-03-05T05:16:24.960Z,19.60
2019-03-05T05:18:53.394Z,19.60
2019-03-05T05:21:21.803Z,19.60
2019-03-05T05:23:50.227Z,19.60
2019-03-05T05:26:18.682Z,19.60
2019-03-05T05:28:47.100Z,19.60
2019-03-05T05:31:15.512Z,19.60
2019-03-05T05:33:43.968Z,19.60
2019-03-05T05:36:12.379Z,19.60
2019-03-05T05:38:40.797Z,19.60
2019-03-05T05:41:09.250Z,19.70
2019-03-05T05:43:37.664Z,19.70
2019-03-05T05:46:06.082Z,19.60
2019-03-05T05:48:34.520Z,19.60
2019-03-05T05:51:02.952Z,19.60
2019-03-05T05:53:31.362Z,19.50
2019-03-05T05:55:59.794Z,19.60
2019-03-05T05:58:28.210Z,19.60
2019-03-05T06:00:58.275Z,19.60
2019-03-05T06:03:26.707Z,19.60
2019-03-05T06:05:55.122Z,19.60
2019-03-05T06:08:23.543Z,19.60
2019-03-05T06:10:53.111Z,19.70
2019-03-05T06:13:21.797Z,19.60
2019-03-05T06:15:50.213Z,19.60
2019-03-05T06:18:18.650Z,19.70
2019-03-05T06:20:47.080Z,19.60
2019-03-05T06:23:15.504Z,19.70
2019-03-05T06:25:43.953Z,19.70
2019-03-05T06:28:12.363Z,19.70
2019-03-05T06:30:42.788Z,19.70
2019-03-05T06:33:11.366Z,19.80
2019-03-05T06:35:41.329Z,19.80
2019-03-05T06:38:09.752Z,19.80
2019-03-05T06:40:38.196Z,19.80
2019-03-05T06:43:06.608Z,19.80
2019-03-05T06:45:35.018Z,19.80
2019-03-05T06:48:03.466Z,19.80
2019-03-05T06:50:31.887Z,19.80
2019-03-05T06:53:00.298Z,19.90
2019-03-05T06:55:28.738Z,19.80
2019-03-05T06:57:57.168Z,19.70
2019-03-05T07:00:32.941Z,19.70
2019-03-05T07:03:01.626Z,19.70
2019-03-05T07:06:06.810Z,19.70
2019-03-05T07:08:36.698Z,19.70
2019-03-05T07:11:29.425Z,19.70
2019-03-05T07:14:07.133Z,19.80
2019-03-05T07:16:47.819Z,19.90
2019-03-05T07:19:17.615Z,19.90
2019-03-05T07:21:55.013Z,19.90
2019-03-05T07:24:46.991Z,19.90
2019-03-05T07:27:21.690Z,19.90
2019-03-05T07:29:50.106Z,20.00
2019-03-05T07:32:18.560Z,20.10
2019-03-05T07:34:48.616Z,20.00
2019-03-05T07:37:17.031Z,20.00
2019-03-05T07:39:45.472Z,20.10
2019-03-05T07:42:13.890Z,20.00
2019-03-05T07:44:42.290Z,20.10
2019-03-05T07:47:10.738Z,20.20
2019-03-05T07:49:43.725Z,20.10
2019-03-05T07:52:09.231Z,20.10
2019-03-05T07:54:37.666Z,20.10
2019-03-05T07:57:06.084Z,20.10
2019-03-05T07:59:34.515Z,20.10
2019-03-05T08:02:03.232Z,20.10
2019-03-05T08:04:31.648Z,20.00
2019-03-05T08:07:00.058Z,19.90
2019-03-05T08:09:36.037Z,20.00
2019-03-05T08:12:31.942Z,20.10
2019-03-05T08:15:15.420Z,20.10
2019-03-05T08:17:43.826Z,20.00
2019-03-05T08:20:12.684Z,19.80
2019-03-05T08:22:41.386Z,19.80
2019-03-05T08:25:11.738Z,19.70
2019-03-05T08:27:40.146Z,19.70
2019-03-05T08:30:14.967Z,19.50
2019-03-05T08:32:43.440Z,19.50
2019-03-05T08:35:11.848Z,19.50
2019-03-05T08:37:40.276Z,19.50
2019-03-05T08:40:13.563Z,19.50
2019-03-05T08:42:41.979Z,19.50
2019-03-05T08:45:14.978Z,19.50
2019-03-05T08:47:43.413Z,19.50
2019-03-05T08:50:15.491Z,19.50
2019-03-05T08:52:43.943Z,19.50
2019-03-05T08:55:12.743Z,19.60
2019-03-05T08:57:41.160Z,19.70
2019-03-05T09:00:12.904Z,19.80
2019-03-05T09:02:48.500Z,19.90
2019-03-05T09:05:11.860Z,20.00
2019-03-05T09:07:40.298Z,20.00
2019-03-05T09:10:16.908Z,20.10
2019-03-05T09:12:45.351Z,20.10
2019-03-05T09:15:16.194Z,20.10
2019-03-05T09:17:44.691Z,20.10
2019-03-05T09:20:15.761Z,20.10
2019-03-05T09:22:44.194Z,20.10
2019-03-05T09:25:14.759Z,20.10
2019-03-05T09:27:43.210Z,20.00
2019-03-05T09:30:15.128Z,20.20
2019-03-05T09:32:43.586Z,20.20
2019-03-05T09:35:13.971Z,20.20
2019-03-05T09:37:42.383Z,20.20
2019-03-05T09:40:13.637Z,20.20
2019-03-05T09:42:42.066Z,20.30
2019-03-05T09:45:13.319Z,20.30
2019-03-05T09:47:41.732Z,20.30
2019-03-05T09:50:13.169Z,20.20
2019-03-05T09:52:41.591Z,20.20
2019-03-05T09:55:18.159Z,20.30
2019-03-05T09:57:46.630Z,20.30
2019-03-05T10:00:20.281Z,20.30
2019-03-05T10:02:48.796Z,20.30
2019-03-05T10:05:18.244Z,20.30
2019-03-05T10:07:46.728Z,20.40
2019-03-05T10:10:23.490Z,20.40
2019-03-05T10:12:51.980Z,20.40
2019-03-05T10:15:22.031Z,20.40
2019-03-05T10:17:50.543Z,20.40
2019-03-05T10:20:24.140Z,20.40
2019-03-05T10:22:52.548Z,20.50
2019-03-05T10:25:27.807Z,20.50
2019-03-05T10:27:56.931Z,20.50
2019-03-05T10:30:30.666Z,20.50
2019-03-05T10:33:01.287Z,20.50
2019-03-05T10:35:29.719Z,20.50
2019-03-05T10:37:59.914Z,20.50
2019-03-05T10:40:50.823Z,20.60
2019-03-05T10:43:19.502Z,20.60
2019-03-05T10:45:48.861Z,20.50
2019-03-05T10:48:20.014Z,20.60
2019-03-05T10:50:48.425Z,20.60
2019-03-05T10:53:16.831Z,20.60
2019-03-05T10:55:45.280Z,20.60
2019-03-05T10:58:15.009Z,20.60
2019-03-05T11:00:48.895Z,20.60
2019-03-05T11:03:17.738Z,20.60
2019-03-05T11:05:46.223Z,20.70
2019-03-05T11:08:19.991Z,20.70
2019-03-05T11:10:48.798Z,20.70
2019-03-05T11:13:17.212Z,20.70
2019-03-05T11:15:47.329Z,20.70
2019-03-05T11:18:16.134Z,20.70
2019-03-05T11:20:44.548Z,20.70
2019-03-05T11:23:12.972Z,20.70
2019-03-05T11:25:41.412Z,20.70
2019-03-05T11:28:09.828Z,20.70
2019-03-05T11:30:38.682Z,20.70
2019-03-05T11:33:07.387Z,20.80
2019-03-05T11:35:36.240Z,20.70
2019-03-05T11:38:04.644Z,20.80
2019-03-05T11:40:33.094Z,20.80
2019-03-05T11:43:15.978Z,20.80
2019-03-05T11:45:44.585Z,20.80
2019-03-05T11:48:15.226Z,20.80
2019-03-05T11:50:43.906Z,20.90
2019-03-05T11:53:12.441Z,20.90
2019-03-05T11:55:40.841Z,20.90
2019-03-05T11:58:09.247Z,20.90
2019-03-05T12:00:55.640Z,20.90
2019-03-05T12:03:24.063Z,21.00
2019-03-05T12:05:52.539Z,21.20
2019-03-05T12:08:20.985Z,21.50
2019-03-05T12:10:49.401Z,21.60
2019-03-05T12:13:17.883Z,21.50
2019-03-05T12:15:46.327Z,21.70
2019-03-05T12:18:14.727Z,22.00
2019-03-05T12:20:43.144Z,22.40
2019-03-05T12:23:11.860Z,22.60
2019-03-05T12:25:41.123Z,22.80
2019-03-05T12:28:11.045Z,22.90
2019-03-05T12:30:39.887Z,23.00
2019-03-05T12:33:08.296Z,23.00
2019-03-05T12:35:37.131Z,23.00
2019-03-05T12:38:05.744Z,23.10
2019-03-05T12:40:34.157Z,23.30
2019-03-05T12:43:02.569Z,23.40
2019-03-05T12:45:31.008Z,23.40
2019-03-05T12:47:59.427Z,23.50
2019-03-05T12:50:33.142Z,23.50
2019-03-05T12:53:01.583Z,23.60
2019-03-05T12:55:29.998Z,23.70
2019-03-05T12:57:58.475Z,23.70
2019-03-05T13:00:34.747Z,23.70
2019-03-05T13:03:03.794Z,23.70
2019-03-05T13:05:32.211Z,23.80
2019-03-05T13:08:00.647Z,23.80
2019-03-05T13:10:37.345Z,23.80
2019-03-05T13:13:03.939Z,23.80
2019-03-05T13:15:34.747Z,23.70
2019-03-05T13:18:03.224Z,23.50
2019-03-05T13:20:31.641Z,23.10
2019-03-05T13:23:00.083Z,22.70
2019-03-05T13:25:29.877Z,22.20
2019-03-05T13:28:01.941Z,21.70
2019-03-05T13:30:32.445Z,21.50
2019-03-05T13:33:01.083Z,21.40
2019-03-05T13:35:30.834Z,21.30
2019-03-05T13:38:10.239Z,21.20
2019-03-05T13:40:40.513Z,21.20
2019-03-05T13:43:08.703Z,21.20
2019-03-05T13:45:37.134Z,21.20
2019-03-05T13:48:14.703Z,21.10
2019-03-05T13:51:04.490Z,20.90
2019-03-05T13:54:00.308Z,20.90
2019-03-05T13:56:31.340Z,21.10
2019-03-05T13:59:21.191Z,21.20
2019-03-05T14:01:49.627Z,21.20
2019-03-05T14:04:33.437Z,21.20
2019-03-05T14:07:29.211Z,21.20
2019-03-05T14:09:57.620Z,21.10
2019-03-05T14:12:26.040Z,21.20
2019-03-05T14:14:54.463Z,21.20
2019-03-05T14:17:23.791Z,21.20
2019-03-05T14:19:52.188Z,21.20
2019-03-05T14:22:20.674Z,21.10
2019-03-05T14:24:49.035Z,21.00
2019-03-05T14:27:17.447Z,21.00
2019-03-05T14:29:45.893Z,20.90
2019-03-05T14:32:14.387Z,20.80
2019-03-05T14:34:45.180Z,20.80
2019-03-05T14:37:13.628Z,20.70
2019-03-05T14:39:42.046Z,20.50
2019-03-05T14:42:11.622Z,20.50
2019-03-05T14:44:40.489Z,20.40
2019-03-05T14:47:09.080Z,20.40
2019-03-05T14:49:37.586Z,20.30
2019-03-05T14:52:06.198Z,20.20
2019-03-05T14:54:34.694Z,20.20
2019-03-05T14:57:03.257Z,20.20
2019-03-05T14:59:31.690Z,20.10
2019-03-05T15:02:02.245Z,20.00
2019-03-05T15:04:30.184Z,20.00
2019-03-05T15:06:58.720Z,20.00
2019-03-05T15:09:27.531Z,20.00
2019-03-05T15:11:55.971Z,20.00
2019-03-05T15:14:24.706Z,20.00
2019-03-05T15:16:53.136Z,19.90
2019-03-05T15:19:23.728Z,19.80
2019-03-05T15:21:52.169Z,19.70
2019-03-05T15:24:20.729Z,19.70
2019-03-05T15:26:49.198Z,19.70
2019-03-05T15:29:17.629Z,19.70
2019-03-05T15:31:46.067Z,19.80
2019-03-05T15:34:14.482Z,19.70
2019-03-05T15:36:42.928Z,19.90
2019-03-05T15:39:11.324Z,20.00
2019-03-05T15:41:39.742Z,20.10
2019-03-05T15:44:08.225Z,20.10
2019-03-05T15:46:36.763Z,20.10
2019-03-05T15:49:05.243Z,20.10
2019-03-05T15:51:33.711Z,20.10
2019-03-05T15:54:02.422Z,20.20
2019-03-05T15:56:30.838Z,20.20
2019-03-05T15:58:59.267Z,20.10
2019-03-05T16:01:27.692Z,20.20
2019-03-05T16:03:56.103Z,20.20
2019-03-05T16:06:24.568Z,20.20
2019-03-05T16:08:52.966Z,20.20
2019-03-05T16:11:21.382Z,20.20
2019-03-05T16:13:52.376Z,20.20
2019-03-05T16:16:19.887Z,20.20
2019-03-05T16:18:48.292Z,20.20
2019-03-05T16:21:16.733Z,20.20
2019-03-05T16:23:45.154Z,20.20
2019-03-05T16:26:13.571Z,20.20
2019-03-05T16:28:43.589Z,20.20
2019-03-05T16:31:16.236Z,20.20
2019-03-05T16:33:52.479Z,20.20
2019-03-05T16:36:25.491Z,20.20
2019-03-05T16:38:57.218Z,20.30
2019-03-05T16:41:36.027Z,20.30
2019-03-05T16:44:06.092Z,20.20
2019-03-05T16:46:51.203Z,20.20
2019-03-05T16:49:30.347Z,20.30
2019-03-05T16:52:18.671Z,20.20
2019-03-05T16:54:54.711Z,20.20
2019-03-05T16:57:36.885Z,20.10
2019-03-05T17:00:15.013Z,20.10
2019-03-05T17:02:47.872Z,20.10
2019-03-05T17:05:22.332Z,20.10
2019-03-05T17:08:07.590Z,20.20
2019-03-05T17:10:37.657Z,20.10
2019-03-05T17:13:06.058Z,20.20
2019-03-05T17:15:34.498Z,20.20
2019-03-05T17:18:02.909Z,20.30
2019-03-05T17:20:31.323Z,20.20
2019-03-05T17:22:59.766Z,20.20
2019-03-05T17:25:28.182Z,20.10
2019-03-05T17:27:56.602Z,20.20
2019-03-05T17:30:25.043Z,20.20
2019-03-05T17:32:53.462Z,20.20
2019-03-05T17:35:21.886Z,20.20
2019-03-05T17:37:50.745Z,20.20
2019-03-05T17:40:19.157Z,20.20
2019-03-05T17:42:47.574Z,20.20
2019-03-05T17:45:21.878Z,20.10
2019-03-05T17:47:50.296Z,20.10
2019-03-05T17:50:18.706Z,20.20
2019-03-05T17:52:47.142Z,20.10
2019-03-05T17:55:27.069Z,20.10
2019-03-05T17:57:54.401Z,20.10
2019-03-05T18:00:27.550Z,20.10
2019-03-05T18:02:55.960Z,20.10
2019-03-05T18:05:24.417Z,20.10
2019-03-05T18:07:52.830Z,20.10
2019-03-05T18:10:21.441Z,20.10
2019-03-05T18:12:50.060Z,20.10
2019-03-05T18:15:18.479Z,20.00
2019-03-05T18:17:46.897Z,20.10
2019-03-05T18:20:20.159Z,20.10
2019-03-05T18:22:48.836Z,20.00
2019-03-05T18:25:18.077Z,20.10
2019-03-05T18:27:47.062Z,20.00
2019-03-05T18:30:29.793Z,20.10
2019-03-05T18:32:58.426Z,20.00
2019-03-05T18:35:26.835Z,20.10
2019-03-05T18:37:55.421Z,20.10
2019-03-05T18:40:24.504Z,20.10
2019-03-05T18:42:53.145Z,20.00
2019-03-05T18:45:25.113Z,20.00
2019-03-05T18:47:53.554Z,20.00
2019-03-05T18:50:22.285Z,20.00
2019-03-05T18:52:53.098Z,20.00
2019-03-05T18:55:22.881Z,20.00
2019-03-05T18:57:51.287Z,19.90
2019-03-05T19:00:36.157Z,19.90
2019-03-05T19:03:09.605Z,20.00
2019-03-05T19:05:38.210Z,20.00
2019-03-05T19:08:06.661Z,20.00
2019-03-05T19:10:35.079Z,20.00
2019-03-05T19:13:03.503Z,20.00
2019-03-05T19:15:31.942Z,20.00
2019-03-05T19:18:00.712Z,20.00
2019-03-05T19:20:30.161Z,20.10
2019-03-05T19:22:59.807Z,20.00
2019-03-05T19:25:33.734Z,20.00
2019-03-05T19:28:02.140Z,20.00
2019-03-05T19:30:41.976Z,20.00
2019-03-05T19:33:10.374Z,20.00
2019-03-05T19:35:38.790Z,20.00
2019-03-05T19:38:07.233Z,20.10
2019-03-05T19:40:42.958Z,20.10
2019-03-05T19:43:11.373Z,20.00
2019-03-05T19:45:39.811Z,20.00
2019-03-05T19:48:08.228Z,20.00
2019-03-05T19:50:36.636Z,20.00
2019-03-05T19:53:05.343Z,20.00
2019-03-05T19:55:33.754Z,20.00
2019-03-05T19:58:14.353Z,20.00
2019-03-05T20:01:09.342Z,20.00
2019-03-05T20:03:37.790Z,20.00
2019-03-05T20:06:06.203Z,20.10
2019-03-05T20:08:39.982Z,20.00
2019-03-05T20:11:05.533Z,20.00
2019-03-05T20:13:33.943Z,20.00
2019-03-05T20:16:02.632Z,20.00
2019-03-05T20:18:31.062Z,20.00
2019-03-05T20:20:59.483Z,20.00
2019-03-05T20:23:27.895Z,20.00
2019-03-05T20:25:56.360Z,20.00
2019-03-05T20:28:24.772Z,20.00
2019-03-05T20:30:53.182Z,20.00
2019-03-05T20:33:21.639Z,20.00
2019-03-05T20:35:50.382Z,19.90
2019-03-05T20:38:18.785Z,19.90
2019-03-05T20:40:48.381Z,20.00
2019-03-05T20:43:16.805Z,19.90
2019-03-05T20:45:48.525Z,19.90
2019-03-05T20:48:17.309Z,20.00
2019-03-05T20:50:45.728Z,19.90
2019-03-05T20:53:14.146Z,19.90
2019-03-05T20:55:42.585Z,19.90
2019-03-05T20:58:11.001Z,20.00
2019-03-05T21:00:40.178Z,19.90
2019-03-05T21:03:12.425Z,19.90
2019-03-05T21:05:46.397Z,19.90
2019-03-05T21:08:14.814Z,19.90
2019-03-05T21:10:43.256Z,19.90
2019-03-05T21:13:11.871Z,19.90
2019-03-05T21:15:40.283Z,19.90
2019-03-05T21:18:13.869Z,19.90
2019-03-05T21:20:42.294Z,19.90
2019-03-05T21:23:10.711Z,19.90
2019-03-05T21:25:39.144Z,19.90
2019-03-05T21:28:07.564Z,19.80
2019-03-05T21:30:35.981Z,19.90
2019-03-05T21:33:04.425Z,19.90
2019-03-05T21:35:32.839Z,19.90
2019-03-05T21:38:01.264Z,19.90
2019-03-05T21:40:30.537Z,19.90
2019-03-05T21:42:59.268Z,19.80
2019-03-05T21:45:36.487Z,19.90
2019-03-05T21:48:05.841Z,19.80
2019-03-05T21:50:34.254Z,19.80
2019-03-05T21:53:02.702Z,19.80
2019-03-05T21:55:31.126Z,19.80
2019-03-05T21:57:59.903Z,19.90
2019-03-05T22:00:34.125Z,19.80
2019-03-05T22:03:02.793Z,19.80
2019-03-05T22:05:31.199Z,19.80
2019-03-05T22:07:59.650Z,19.80
2019-03-05T22:10:28.068Z,19.80
2019-03-05T22:12:56.542Z,19.80
2019-03-05T22:15:32.718Z,19.80
2019-03-05T22:18:01.129Z,19.80
2019-03-05T22:20:29.541Z,19.80
2019-03-05T22:22:58.380Z,19.80
2019-03-05T22:25:28.776Z,19.80
2019-03-05T22:27:56.853Z,19.80
2019-03-05T22:30:31.611Z,19.80
2019-03-05T22:33:00.025Z,19.80
2019-03-05T22:35:28.441Z,19.80
2019-03-05T22:37:56.885Z,19.80
2019-03-05T22:40:26.329Z,19.80
2019-03-05T22:42:54.745Z,19.80
2019-03-05T22:45:35.964Z,19.80
2019-03-05T22:48:04.388Z,19.80
2019-03-05T22:50:32.792Z,19.80
2019-03-05T22:53:01.231Z,19.80
2019-03-05T22:55:29.677Z,19.80
2019-03-05T22:57:58.353Z,19.80
2019-03-05T23:00:37.495Z,19.80
2019-03-05T23:03:15.319Z,19.80
2019-03-05T23:05:43.783Z,19.80
2019-03-05T23:08:12.204Z,19.80
2019-03-05T23:10:40.615Z,19.80
2019-03-05T23:13:09.056Z,19.80
2019-03-05T23:15:37.465Z,19.80
2019-03-05T23:18:05.884Z,19.80
2019-03-05T23:20:34.318Z,19.80
2019-03-05T23:23:02.724Z,19.80
2019-03-05T23:25:31.144Z,19.80
2019-03-05T23:27:59.585Z,19.80
2019-03-05T23:30:27.999Z,19.80
2019-03-05T23:32:56.615Z,19.80
2019-03-05T23:35:25.039Z,19.80
2019-03-05T23:37:53.447Z,19.80
2019-03-05T23:40:21.855Z,19.80
2019-03-05T23:42:50.295Z,19.70
2019-03-05T23:45:19.654Z,19.80
2019-03-05T23:47:48.055Z,19.80
2019-03-05T23:50:17.253Z,19.80
2019-03-05T23:52:46.044Z,19.80
2019-03-05T23:55:14.719Z,19.80
2019-03-05T23:57:43.668Z,19.80
